Flight Track Log - Related Links

Times and Time Zones

All times are in EDT time to prevent confusion due to time zone crossing. See the UAL44 flight status page for this flight to view local times or setup timezone preferences in your user account.

Time Position Orientation Groundspeed Altitude Reporting Facility
EDT Latitude Longitude Course Direction KTS MPH feet Rate Location/Type
Fri 06:57:58 PM 40.6551 -74.1793 207° Southwest 170 196 2,400  Level FlightAware ADS-B
Fri 06:58:01 PM 40.6525 -74.1796 185° South 167 192 2,600 1,655 Climbing FlightAware ADS-B
Fri 06:58:27 PM 40.6389 -74.1985 227° Southwest 200 230 3,200 1,091 Climbing FlightAware ADS-B
Fri 06:58:34 PM 40.6388 -74.2078 269° West 227 261 3,200 2,000 Level FlightAware ADS-B
Fri 06:59:02 PM 40.6586 -74.2418 308° West 4,300 2,341 Climbing FlightAware ADS-B
Fri 06:59:15 PM 40.6760 -74.2480 345° North 296 341 4,800 2,000 Climbing FlightAware ADS-B
Fri 06:59:23 PM 40.6881 -74.2474 North 311 358 5,000 1,125 Climbing FlightAware ADS-B
Fri 06:59:31 PM 40.6987 -74.2440 14° North 318 366 5,100 429 Climbing FlightAware ADS-B
Fri 06:59:37 PM 40.7065 -74.2394 24° Northeast 321 369 5,100 1,000 Level FlightAware ADS-B
Fri 07:00:01 PM 40.7380 -74.2137 32° Northeast 240 276 5,600 1,500 Climbing FlightAware ADS-B
Fri 07:00:05 PM 40.7425 -74.2086 41° Northeast 330 380 5,800 3,000 Climbing FlightAware ADS-B
Fri 07:00:15 PM 40.7526 -74.1936 48° Northeast 332 382 6,300 2,824 Climbing FlightAware ADS-B
Fri 07:00:22 PM 40.7589 -74.1816 55° Northeast 332 382 6,600 2,625 Climbing FlightAware ADS-B
Fri 07:00:31 PM 40.7662 -74.1672 56° Northeast 333 383 7,000 2,824 Climbing FlightAware ADS-B
Fri 07:00:39 PM 40.7733 -74.1536 55° Northeast 334 384 7,400 2,400 Climbing FlightAware ADS-B
Fri 07:00:51 PM 40.7843 -74.1325 55° Northeast 342 394 7,800 1,875 Climbing FlightAware ADS-B
Fri 07:00:55 PM 40.7872 -74.1266 57° Northeast 343 395 7,900 2,526 Climbing FlightAware ADS-B
Fri 07:01:10 PM 40.8010 -74.1000 56° Northeast 344 396 8,600 3,310 Climbing FlightAware ADS-B
Fri 07:01:24 PM 40.8135 -74.0753 56° Northeast 341 392 9,500 3,375 Climbing FlightAware ADS-B
Fri 07:01:26 PM 40.8148 -74.0728 56° Northeast 341 392 9,500 2,308 Level FlightAware ADS-B
Fri 07:01:37 PM 40.8250 -74.0525 56° Northeast 346 398 10,000 1,161 Climbing FlightAware ADS-B
Fri 07:01:57 PM 40.8438 -74.0166 55° Northeast 376 433 10,100 200 Climbing FlightAware ADS-B
Fri 07:02:07 PM 40.8543 -73.9966 55° Northeast 395 455 10,100 188 Level FlightAware ADS-B
Fri 07:02:29 PM 40.8777 -73.9525 55° Northeast 420 483 10,200 158 Climbing FlightAware ADS-B
Fri 07:02:45 PM 40.8960 -73.9182 55° Northeast 408 470 10,200  Level FlightAware ADS-B
Fri 07:03:01 PM 40.9137 -73.8851 55° Northeast 428 493 10,200 1,021 Level FlightAware ADS-B
Fri 07:03:32 PM 40.9514 -73.8210 52° Northeast 429 494 11,000 2,066 Climbing FlightAware ADS-B
Fri 07:04:02 PM 40.9920 -73.7610 48° Northeast 436 502 12,300 2,476 Climbing FlightAware ADS-B
Fri 07:04:35 PM 41.0359 -73.6944 49° Northeast 445 512 13,600 2,381 Climbing FlightAware ADS-B
Fri 07:05:05 PM 41.0770 -73.6303 50° Northeast 454 522 14,800 1,970 Climbing FlightAware ADS-B
Fri 07:05:42 PM 41.1220 -73.5570 51° Northeast 467 537 15,800 1,756 Climbing FlightAware ADS-B
Fri 07:05:46 PM 41.1316 -73.5404 52° Northeast 469 540 16,000 2,318 Climbing FlightAware ADS-B
Fri 07:06:26 PM 41.1810 -73.4436 56° Northeast 478 550 17,500 2,143 Climbing FlightAware ADS-B
Fri 07:06:56 PM 41.2194 -73.3688 56° Northeast 489 563 18,500 1,938 Climbing FlightAware ADS-B
Fri 07:07:31 PM 41.2651 -73.2815 55° Northeast 498 573 19,600 1,867 Climbing FlightAware ADS-B
Fri 07:08:26 PM 41.3386 -73.1419 55° Northeast 508 585 21,300 1,884 Climbing FlightAware ADS-B
Fri 07:08:57 PM 41.3807 -73.0619 55° Northeast 515 593 22,300 1,814 Climbing FlightAware ADS-B
Fri 07:09:52 PM 41.4510 -72.9290 55° Northeast 520 598 23,900 1,620 Climbing FlightAware ADS-B
Fri 07:10:37 PM 41.5120 -72.8070 56° Northeast 525 604 25,000 1,624 Climbing FlightAware ADS-B
Fri 07:11:17 PM 41.5600 -72.6880 62° Northeast 528 608 26,200 1,765 Climbing FlightAware ADS-B
Fri 07:12:02 PM 41.6110 -72.5630 61° Northeast 523 602 27,500 1,600 Climbing FlightAware ADS-B
Fri 07:12:32 PM 41.6430 -72.4840 62° Northeast 528 608 28,200 1,642 Climbing FlightAware ADS-B
Fri 07:13:37 PM 41.7160 -72.2920 63° Northeast 519 597 30,100 1,600 Climbing FlightAware ADS-B
Fri 07:14:17 PM 41.7550 -72.1910 63° Northeast 518 596 31,000 1,341 Climbing FlightAware ADS-B
Fri 07:15:02 PM 41.8100 -72.0480 63° Northeast 516 594 32,000 1,271 Climbing FlightAware ADS-B
Fri 07:15:42 PM 41.8490 -71.9480 62° Northeast 513 590 32,800 706 Climbing FlightAware ADS-B
Fri 07:16:27 PM 41.9030 -71.8070 63° Northeast 512 589 33,000 141 Climbing FlightAware ADS-B
Fri 07:17:07 PM 41.9450 -71.6940 63° Northeast 510 587 33,000  Level FlightAware ADS-B
Fri 07:17:47 PM 41.9870 -71.5830 63° Northeast 509 586 33,000  Level FlightAware ADS-B
Fri 07:18:32 PM 42.0350 -71.4540 63° Northeast 509 586 33,000  Level FlightAware ADS-B
Fri 07:19:12 PM 42.0770 -71.3410 63° Northeast 507 583 33,000  Level FlightAware ADS-B
Fri 07:19:57 PM 42.1240 -71.2140 63° Northeast 508 585 33,000  Level FlightAware ADS-B
Fri 07:20:37 PM 42.1650 -71.1030 63° Northeast 506 582 33,000  Level FlightAware ADS-B
Fri 07:21:17 PM 42.2070 -70.9890 64° Northeast 504 580 33,000  Level FlightAware ADS-B
Fri 07:22:02 PM 42.2540 -70.8620 63° Northeast 501 577 33,000  Level FlightAware ADS-B
Fri 07:22:42 PM 42.2940 -70.7500 64° Northeast 501 577 33,000  Level FlightAware ADS-B
Fri 07:23:22 PM 42.3360 -70.6350 64° Northeast 500 575 33,000  Level FlightAware ADS-B
Fri 07:24:07 PM 42.3820 -70.5090 64° Northeast 499 574 33,000  Level FlightAware ADS-B
Fri 07:24:47 PM 42.4220 -70.3960 64° Northeast 499 574 33,000  Level FlightAware ADS-B
Fri 07:25:32 PM 42.4670 -70.2720 64° Northeast 497 572 33,000  Level FlightAware ADS-B
Fri 07:26:12 PM 42.5060 -70.1610 64° Northeast 497 572 33,000  Level FlightAware ADS-B
Fri 07:26:57 PM 42.5530 -70.0290 64° Northeast 498 573 33,000  Level FlightAware ADS-B
Fri 07:27:27 PM 42.5820 -69.9470 64° Northeast 498 573 33,000  Level FlightAware ADS-B
Fri 07:28:17 PM 42.6320 -69.8070 64° Northeast 499 574 33,000  Level FlightAware ADS-B
Fri 07:29:02 PM 42.6740 -69.6860 65° Northeast 500 575 33,000  Level FlightAware ADS-B
Fri 07:29:42 PM 42.7130 -69.5740 65° Northeast 500 575 33,000  Level FlightAware ADS-B
Fri 07:30:27 PM 42.7620 -69.4330 65° Northeast 500 575 33,000  Level FlightAware ADS-B
Fri 07:31:07 PM 42.8020 -69.3170 65° Northeast 501 577 33,000  Level FlightAware ADS-B
Fri 07:31:42 PM 42.8370 -69.2170 64° Northeast 505 581 33,000  Level FlightAware ADS-B
Fri 07:32:32 PM 42.8870 -69.0720 65° Northeast 504 580 33,000  Level FlightAware ADS-B
Fri 07:33:12 PM 42.9260 -68.9580 65° Northeast 504 580 33,000  Level FlightAware ADS-B
Fri 07:33:52 PM 42.9620 -68.8510 65° Northeast 503 579 33,000  Level FlightAware ADS-B
Fri 07:34:37 PM 43.0080 -68.7170 65° Northeast 503 579 33,000  Level FlightAware ADS-B
Fri 07:35:17 PM 43.0460 -68.6060 65° Northeast 502 578 33,000  Level FlightAware ADS-B
Fri 07:36:02 PM 43.0870 -68.4840 65° Northeast 499 574 33,000  Level FlightAware ADS-B
Fri 07:36:42 PM 43.1200 -68.3870 65° Northeast 499 574 33,000  Level FlightAware ADS-B
Fri 07:37:27 PM 43.1730 -68.2250 66° East 493 567 33,000  Level FlightAware ADS-B
Fri 07:38:07 PM 43.2040 -68.1310 66° East 493 567 33,000  Level FlightAware ADS-B
Fri 07:38:47 PM 43.2350 -68.0340 66° East 493 567 33,000  Level FlightAware ADS-B
Fri 07:39:32 PM 43.2900 -67.8700 65° Northeast 491 565 33,000  Level FlightAware ADS-B
Fri 07:40:12 PM 43.3280 -67.7550 66° East 491 565 33,000  Level FlightAware ADS-B
Fri 07:40:57 PM 43.3690 -67.6270 66° East 489 563 33,000  Level FlightAware ADS-B
Fri 07:41:37 PM 43.4060 -67.5150 66° East 489 563 33,000  Level FlightAware ADS-B
Fri 07:42:17 PM 43.4440 -67.3980 66° East 488 562 33,000  Level FlightAware ADS-B
Fri 07:43:02 PM 43.4840 -67.2720 66° East 490 564 33,000  Level FlightAware ADS-B
Fri 07:43:42 PM 43.5220 -67.1550 66° East 488 562 33,000  Level FlightAware ADS-B
Fri 07:44:22 PM 43.5580 -67.0410 66° East 492 566 33,000  Level FlightAware ADS-B
Fri 07:45:02 PM 43.6080 -66.9370 56° Northeast 492 566 33,000  Level FlightAware ADS-B
Fri 07:45:42 PM 43.6660 -66.8410 50° Northeast 491 565 33,000  Level FlightAware ADS-B
Fri 07:46:22 PM 43.7270 -66.7460 48° Northeast 491 565 33,000  Level FlightAware ADS-B
Fri 07:47:07 PM 43.7940 -66.6390 49° Northeast 490 564 33,000  Level FlightAware ADS-B
Fri 07:47:47 PM 43.8530 -66.5440 49° Northeast 489 563 33,000  Level FlightAware ADS-B
Fri 07:48:32 PM 43.9190 -66.4380 49° Northeast 483 556 33,000  Level FlightAware ADS-B
Fri 07:49:12 PM 43.9770 -66.3440 49° Northeast 482 555 33,000  Level FlightAware ADS-B
Fri 07:49:52 PM 44.0370 -66.2470 49° Northeast 482 555 33,000  Level FlightAware ADS-B
Fri 07:50:37 PM 44.1020 -66.1410 49° Northeast 481 554 33,000  Level FlightAware ADS-B
Fri 07:51:17 PM 44.1600 -66.0470 49° Northeast 482 555 33,000  Level FlightAware ADS-B
Fri 07:51:57 PM 44.2170 -65.9530 50° Northeast 483 556 33,000  Level FlightAware ADS-B
Fri 07:52:42 PM 44.2860 -65.8390 50° Northeast 488 562 33,000  Level FlightAware ADS-B
Fri 07:53:22 PM 44.3440 -65.7430 50° Northeast 489 563 33,000  Level FlightAware ADS-B
Fri 07:54:07 PM 44.4090 -65.6360 50° Northeast 489 563 33,000  Level FlightAware ADS-B
Fri 07:54:47 PM 44.4670 -65.5390 50° Northeast 491 565 33,000  Level FlightAware ADS-B
Fri 07:55:32 PM 44.5350 -65.4260 50° Northeast 491 565 33,000  Level FlightAware ADS-B
Fri 07:55:57 PM 44.5710 -65.3660 50° Northeast 492 566 33,000  Level FlightAware ADS-B
Fri 07:56:42 PM 44.6360 -65.2580 50° Northeast 492 566 33,000  Level FlightAware ADS-B
Fri 07:57:22 PM 44.6940 -65.1590 50° Northeast 491 565 33,000  Level FlightAware ADS-B
Fri 07:58:02 PM 44.7520 -65.0610 50° Northeast 490 564 33,000  Level FlightAware ADS-B
Fri 07:58:47 PM 44.8160 -64.9520 50° Northeast 491 565 33,000  Level FlightAware ADS-B
Fri 07:59:27 PM 44.8740 -64.8540 50° Northeast 491 565 33,000  Level FlightAware ADS-B
Fri 08:00:12 PM 44.9400 -64.7420 50° Northeast 492 566 33,000  Level FlightAware ADS-B
Fri 08:00:52 PM 44.9990 -64.6400 51° Northeast 492 566 33,000  Level FlightAware ADS-B
Fri 08:01:32 PM 45.0560 -64.5430 50° Northeast 492 566 33,000  Level FlightAware ADS-B
Fri 08:02:17 PM 45.1190 -64.4350 50° Northeast 490 564 33,000  Level FlightAware ADS-B
Fri 08:02:57 PM 45.1760 -64.3350 51° Northeast 489 563 33,000  Level FlightAware ADS-B
Fri 08:03:42 PM 45.2410 -64.2210 51° Northeast 489 563 33,000  Level FlightAware ADS-B
Fri 08:04:22 PM 45.2980 -64.1210 51° Northeast 489 563 33,000  Level FlightAware ADS-B
Fri 08:05:02 PM 45.3510 -64.0300 50° Northeast 489 563 33,000  Level FlightAware ADS-B
Fri 08:05:57 PM 45.4300 -63.8910 51° Northeast 489 563 33,000  Level FlightAware ADS-B
Fri 08:06:37 PM 45.4780 -63.8050 51° Northeast 489 563 33,000  Level FlightAware ADS-B
Fri 08:07:27 PM 45.5390 -63.6990 51° Northeast 489 563 33,000  Level FlightAware ADS-B
Fri 08:08:07 PM 45.5870 -63.6130 51° Northeast 489 563 33,000  Level FlightAware ADS-B
Fri 08:08:47 PM 45.6350 -63.5280 51° Northeast 489 563 33,000  Level FlightAware ADS-B
Fri 08:09:27 PM 45.6840 -63.4420 51° Northeast 489 563 33,000  Level FlightAware ADS-B
Fri 08:10:07 PM 45.7320 -63.3570 51° Northeast 489 563 33,000  Level FlightAware ADS-B
Fri 08:10:57 PM 45.7930 -63.2500 51° Northeast 489 563 33,000  Level FlightAware ADS-B
Fri 08:11:37 PM 45.8410 -63.1640 51° Northeast 489 563 33,000  Level FlightAware ADS-B
Fri 08:12:17 PM 45.8890 -63.0780 51° Northeast 489 563 33,000  Level FlightAware ADS-B
Fri 08:12:57 PM 45.9380 -62.9920 51° Northeast 489 563 33,000  Level FlightAware ADS-B
Fri 08:13:37 PM 45.9860 -62.9060 51° Northeast 489 563 33,000  Level FlightAware ADS-B
Fri 08:14:22 PM 46.1470 -62.5930 53° Northeast 492 566 33,000  Level FlightAware ADS-B
Fri 08:15:07 PM 46.2080 -62.4790 52° Northeast 491 565 33,000  Level FlightAware ADS-B
Fri 08:15:47 PM 46.2650 -62.3740 52° Northeast 492 566 33,000  Level FlightAware ADS-B
Fri 08:16:32 PM 46.3260 -62.2590 52° Northeast 492 566 33,000  Level FlightAware ADS-B
Fri 08:17:12 PM 46.3820 -62.1540 52° Northeast 493 567 33,000  Level FlightAware ADS-B
Fri 08:17:57 PM 46.4450 -62.0360 52° Northeast 493 567 33,000  Level FlightAware ADS-B
Fri 08:18:37 PM 46.5010 -61.9280 53° Northeast 494 568 33,000  Level FlightAware ADS-B
Fri 08:19:17 PM 46.5570 -61.8220 52° Northeast 495 570 33,000  Level FlightAware ADS-B
Fri 08:20:02 PM 46.6180 -61.7060 53° Northeast 495 570 33,000  Level FlightAware ADS-B
Fri 08:20:42 PM 46.6740 -61.5990 53° Northeast 495 570 33,000  Level FlightAware ADS-B
Fri 08:21:27 PM 46.7360 -61.4790 53° Northeast 495 570 33,000  Level FlightAware ADS-B
Fri 08:22:07 PM 46.7920 -61.3710 53° Northeast 495 570 33,000  Level FlightAware ADS-B
Fri 08:22:52 PM 46.8520 -61.2540 53° Northeast 495 570 33,000  Level FlightAware ADS-B
Fri 08:23:32 PM 46.9070 -61.1480 53° Northeast 496 571 33,000  Level FlightAware ADS-B
Fri 08:24:12 PM 46.9620 -61.0390 53° Northeast 497 572 33,000  Level FlightAware ADS-B
Fri 08:24:57 PM 47.0250 -60.9150 53° Northeast 496 571 33,000  Level FlightAware ADS-B
Fri 08:25:37 PM 47.0790 -60.8090 53° Northeast 497 572 33,000  Level FlightAware ADS-B
Fri 08:26:17 PM 47.1300 -60.7080 53° Northeast 496 571 33,000  Level FlightAware ADS-B
Fri 08:26:57 PM 47.1810 -60.6080 53° Northeast 496 571 33,000  Level FlightAware ADS-B
Fri 08:27:52 PM 47.2620 -60.4440 54° Northeast 497 572 33,000  Level FlightAware ADS-B
Fri 08:28:37 PM 47.3240 -60.3200 54° Northeast 498 573 33,000  Level FlightAware ADS-B
Fri 08:29:12 PM 47.3660 -60.2350 54° Northeast 498 573 33,000  Level FlightAware ADS-B
Fri 08:29:57 PM 47.4330 -60.1000 54° Northeast 496 571 33,000  Level FlightAware ADS-B
Fri 08:30:47 PM 47.4950 -59.9740 54° Northeast 496 571 33,000  Level FlightAware ADS-B
Fri 08:31:22 PM 47.5420 -59.8780 54° Northeast 494 568 33,000  Level FlightAware ADS-B
Fri 08:32:02 PM 47.5870 -59.7850 54° Northeast 494 568 33,000  Level FlightAware ADS-B
Fri 08:32:52 PM 47.6440 -59.6690 54° Northeast 494 568 33,000  Level FlightAware ADS-B
Fri 08:33:32 PM 47.6900 -59.5750 54° Northeast 494 568 33,000  Level FlightAware ADS-B
Fri 08:34:12 PM 47.7360 -59.4820 54° Northeast 494 568 33,000  Level FlightAware ADS-B
Fri 08:34:52 PM 47.7810 -59.3880 55° Northeast 494 568 33,000  Level FlightAware ADS-B
Fri 08:35:32 PM 47.8270 -59.2950 54° Northeast 494 568 33,000  Level FlightAware ADS-B
Fri 08:36:22 PM 47.8840 -59.1780 54° Northeast 494 568 33,000  Level FlightAware ADS-B
Fri 08:37:02 PM 47.9300 -59.0840 54° Northeast 494 568 33,000  Level FlightAware ADS-B
Fri 08:37:42 PM 47.9750 -58.9900 54° Northeast 494 568 33,000  Level FlightAware ADS-B
Fri 08:38:22 PM 48.0210 -58.8960 54° Northeast 494 568 33,000  Level FlightAware ADS-B
Fri 08:39:02 PM 48.0670 -58.8020 54° Northeast 494 568 33,000  Level FlightAware ADS-B
Fri 08:39:52 PM 48.1240 -58.6840 54° Northeast 494 568 33,000  Level FlightAware ADS-B
Fri 08:40:32 PM 48.1690 -58.5900 54° Northeast 494 568 33,000  Level FlightAware ADS-B
Fri 08:41:09 PM 48.2833 -58.2500 54° Northeast 490 564 33,000  Level Gander Center
Fri 08:42:09 PM 48.3667 -58.0667 56° Northeast 490 564 33,000  Level Gander Center
Fri 08:43:09 PM 48.4333 -57.9000 59° Northeast 490 564 33,000  Level Gander Center
Fri 08:48:27 PM 48.8500 -56.9690 59° Northeast 504 580 33,000  Level FlightAware ADS-B
Fri 08:49:12 PM 48.8940 -56.8460 61° Northeast 504 580 33,000  Level FlightAware ADS-B
Fri 08:49:52 PM 48.9330 -56.7410 60° Northeast 504 580 33,000  Level FlightAware ADS-B
Fri 08:50:32 PM 48.9710 -56.6350 61° Northeast 504 580 33,000  Level FlightAware ADS-B
Fri 08:51:17 PM 49.0370 -56.4350 63° Northeast 507 583 33,000  Level FlightAware ADS-B
Fri 08:52:12 PM 49.0930 -56.2730 62° Northeast 507 583 33,000  Level FlightAware ADS-B
Fri 08:52:52 PM 49.1300 -56.1650 62° Northeast 507 583 33,000  Level FlightAware ADS-B
Fri 08:53:32 PM 49.1680 -56.0580 61° Northeast 507 583 33,000  Level FlightAware ADS-B
Fri 08:54:32 PM 49.2400 -55.8390 63° Northeast 504 580 33,000  Level FlightAware ADS-B
Fri 08:55:12 PM 49.2760 -55.7300 63° Northeast 504 580 33,000  Level FlightAware ADS-B
Fri 08:55:52 PM 49.3120 -55.6220 63° Northeast 504 580 33,000  Level FlightAware ADS-B
Fri 08:56:32 PM 49.3480 -55.5140 63° Northeast 504 580 33,000  Level FlightAware ADS-B
Fri 08:57:22 PM 49.3930 -55.3780 63° Northeast 504 580 33,000  Level FlightAware ADS-B
Fri 08:58:02 PM 49.4710 -55.1520 62° Northeast 506 582 33,000  Level FlightAware ADS-B
Fri 08:58:37 PM 49.5060 -55.0440 63° Northeast 506 582 33,000  Level FlightAware ADS-B
Fri 08:59:27 PM 49.5610 -54.8760 63° Northeast 505 581 33,000  Level FlightAware ADS-B
Fri 09:00:22 PM 49.6200 -54.6970 63° Northeast 505 581 33,000  Level FlightAware ADS-B
Fri 09:01:02 PM 49.6600 -54.5720 64° Northeast 506 582 33,000  Level FlightAware ADS-B
Fri 09:01:37 PM 49.6970 -54.4570 64° Northeast 507 583 33,000  Level FlightAware ADS-B
Fri 09:02:42 PM 49.7580 -54.2700 63° Northeast 507 583 33,000  Level FlightAware ADS-B
Fri 09:03:17 PM 49.7980 -54.1450 64° Northeast 508 585 33,000  Level FlightAware ADS-B
Fri 09:04:17 PM 49.8620 -53.9410 64° Northeast 508 585 33,000  Level FlightAware ADS-B
Fri 09:05:02 PM 49.9090 -53.7900 64° Northeast 504 580 33,000  Level FlightAware ADS-B
Fri 09:05:37 PM 49.9410 -53.6880 64° Northeast 505 581 33,000  Level FlightAware ADS-B
Fri 09:06:17 PM 49.9830 -53.5520 64° Northeast 507 583 33,000  Level FlightAware ADS-B
Fri 09:07:02 PM 50.0280 -53.4080 64° Northeast 507 583 33,000  Level FlightAware ADS-B
Fri 09:07:37 PM 50.0650 -53.2880 64° Northeast 507 583 33,000  Level FlightAware ADS-B
Fri 09:08:22 PM 50.1110 -53.1380 64° Northeast 507 583 33,000  Level FlightAware ADS-B
Fri 09:09:07 PM 50.1530 -52.9980 65° Northeast 507 583 33,000  Level FlightAware ADS-B
Fri 09:09:47 PM 50.1860 -52.8860 65° Northeast 507 583 33,000  Level FlightAware ADS-B
Fri 09:10:27 PM 50.2200 -52.7730 65° Northeast 507 583 33,000  Level FlightAware ADS-B
Fri 09:11:07 PM 50.2540 -52.6600 65° Northeast 507 583 33,000  Level FlightAware ADS-B
Fri 09:11:47 PM 50.2870 -52.5470 65° Northeast 507 583 33,000  Level FlightAware ADS-B
Fri 09:12:32 PM 50.3620 -52.3030 64° Northeast 509 586 33,000  Level FlightAware ADS-B
Fri 09:13:12 PM 50.3960 -52.1840 66° East 509 586 33,000  Level FlightAware ADS-B
Fri 09:13:52 PM 50.4280 -52.0690 66° East 509 586 33,000  Level FlightAware ADS-B
Fri 09:14:42 PM 50.4690 -51.9250 66° East 509 586 33,000  Level FlightAware ADS-B
Fri 09:15:22 PM 50.5020 -51.8100 66° East 509 586 33,000  Level FlightAware ADS-B
Fri 09:15:52 PM 50.5260 -51.7240 66° East 509 586 33,000  Level FlightAware ADS-B
Fri 09:16:32 PM 50.5590 -51.6090 66° East 509 586 33,000  Level FlightAware ADS-B
Fri 09:17:12 PM 50.5910 -51.4940 66° East 509 586 33,000  Level FlightAware ADS-B
Fri 09:18:02 PM 50.6320 -51.3500 66° East 509 586 33,000  Level FlightAware ADS-B
Fri 09:18:42 PM 50.6640 -51.2340 66° East 509 586 33,000  Level FlightAware ADS-B
Fri 09:19:22 PM 50.6970 -51.1190 66° East 509 586 33,000  Level FlightAware ADS-B
Fri 09:20:02 PM 50.7290 -51.0030 66° East 509 586 33,000  Level FlightAware ADS-B
Fri 09:20:42 PM 50.7620 -50.8880 66° East 509 586 33,000  Level FlightAware ADS-B
Fri 09:21:22 PM 50.7950 -50.7720 66° East 509 586 33,000  Level FlightAware ADS-B
Fri 09:22:12 PM 50.8350 -50.6270 66° East 509 586 33,000  Level FlightAware ADS-B
Fri 09:22:28 PM 50.9167 -50.2167 66° East 520 598 33,000  Level Gander Center
Fri 09:23:09 PM 50.9500 -50.0833 68° East 520 598 33,000  Level Gander Center
Fri 09:24:09 PM 51.0167 -49.8500 65° Northeast 520 598 33,000  Level Gander Center
Fri 09:25:09 PM 51.0500 -49.6333 76° East 530 610 33,000  Level Gander Center
Fri 09:25:28 PM 51.0500 -49.5500 90° East 530 610 33,000  Level Gander Center
Fri 09:26:28 PM 51.0667 -49.3000 84° East 540 621 33,000  Level Gander Center
Fri 09:27:28 PM 51.0833 -49.0833 83° East 540 621 33,000  Level Gander Center
Fri 09:29:00 PM 51.1323 -48.7553 77° East  Level FlightAware Approximate
Fri 09:36:00 PM 51.3440 -47.2493 77° East  Level FlightAware Approximate
Fri 09:37:00 PM 51.3727 -47.0331 78° East  Level FlightAware Approximate
Fri 09:38:00 PM 51.4010 -46.8165 78° East  Level FlightAware Approximate
Fri 09:39:00 PM 51.4288 -46.5997 78° East  Level FlightAware Approximate
Fri 09:40:00 PM 51.4563 -46.3827 78° East  Level FlightAware Approximate
Fri 09:41:00 PM 51.4814 -46.1647 80° East  Level FlightAware Approximate
Fri 09:42:00 PM 51.5049 -45.9462 80° East  Level FlightAware Approximate
Fri 09:43:00 PM 51.5280 -45.7275 80° East  Level FlightAware Approximate
Fri 09:44:00 PM 51.5507 -45.5085 80° East  Level FlightAware Approximate
Fri 09:45:00 PM 51.5730 -45.2893 81° East  Level FlightAware Approximate
Fri 09:46:00 PM 51.5948 -45.0700 81° East  Level FlightAware Approximate
Fri 09:47:00 PM 51.6163 -44.8504 81° East  Level FlightAware Approximate
Fri 09:48:00 PM 51.6373 -44.6306 81° East  Level FlightAware Approximate
Fri 09:49:00 PM 51.6580 -44.4106 81° East  Level FlightAware Approximate
Fri 09:50:00 PM 51.6782 -44.1904 81° East  Level FlightAware Approximate
Fri 09:51:00 PM 51.6980 -43.9701 82° East  Level FlightAware Approximate
Fri 09:52:00 PM 51.7174 -43.7495 82° East  Level FlightAware Approximate
Fri 09:53:00 PM 51.7364 -43.5287 82° East  Level FlightAware Approximate
Fri 09:54:00 PM 51.7550 -43.3078 82° East  Level FlightAware Approximate
Fri 09:55:00 PM 51.7731 -43.0867 82° East  Level FlightAware Approximate
Fri 09:56:00 PM 51.7909 -42.8654 83° East  Level FlightAware Approximate
Fri 09:57:00 PM 51.8082 -42.6439 83° East  Level FlightAware Approximate
Fri 09:58:00 PM 51.8259 -42.4225 82° East  Level FlightAware Approximate
Fri 09:59:00 PM 51.8439 -42.2010 82° East  Level FlightAware Approximate
Fri 10:00:00 PM 51.8615 -41.9793 83° East  Level FlightAware Approximate
Fri 10:01:00 PM 51.8788 -41.7575 83° East  Level FlightAware Approximate
Fri 10:02:00 PM 51.8956 -41.5354 83° East  Level FlightAware Approximate
Fri 10:03:00 PM 51.9119 -41.3133 83° East  Level FlightAware Approximate
Fri 10:04:00 PM 51.9279 -41.0910 83° East  Level FlightAware Approximate
Fri 10:05:00 PM 51.9434 -40.8685 83° East  Level FlightAware Approximate
Fri 10:06:00 PM 51.9586 -40.6458 84° East  Level FlightAware Approximate
Fri 10:07:00 PM 51.9733 -40.4230 84° East  Level FlightAware Approximate
Fri 10:08:00 PM 51.9875 -40.2001 84° East  Level FlightAware Approximate
Fri 10:09:00 PM 52.0032 -39.9775 77° East  Level FlightAware Approximate
Fri 10:10:00 PM 52.0344 -39.7590 77° East  Level FlightAware Approximate
Fri 10:11:00 PM 52.0652 -39.5402 77° East  Level FlightAware Approximate
Fri 10:12:00 PM 52.0956 -39.3211 77° East  Level FlightAware Approximate
Fri 10:13:00 PM 52.1256 -39.1016 77° East  Level FlightAware Approximate
Fri 10:14:00 PM 52.1551 -38.8819 78° East  Level FlightAware Approximate
Fri 10:15:00 PM 52.1843 -38.6619 78° East  Level FlightAware Approximate
Fri 10:16:00 PM 52.2131 -38.4416 78° East  Level FlightAware Approximate
Fri 10:17:00 PM 52.2414 -38.2210 78° East  Level FlightAware Approximate
Fri 10:18:00 PM 52.2693 -38.0002 78° East  Level FlightAware Approximate
Fri 10:19:00 PM 52.2968 -37.7790 78° East  Level FlightAware Approximate
Fri 10:20:00 PM 52.3239 -37.5576 79° East  Level FlightAware Approximate
Fri 10:21:00 PM 52.3506 -37.3360 79° East  Level FlightAware Approximate
Fri 10:22:00 PM 52.3769 -37.1140 79° East  Level FlightAware Approximate
Fri 10:23:00 PM 52.4028 -36.8918 79° East  Level FlightAware Approximate
Fri 10:24:00 PM 52.4282 -36.6694 79° East  Level FlightAware Approximate
Fri 10:25:00 PM 52.4532 -36.4466 79° East  Level FlightAware Approximate
Fri 10:26:00 PM 52.4778 -36.2237 80° East  Level FlightAware Approximate
Fri 10:27:00 PM 52.5020 -36.0005 80° East  Level FlightAware Approximate
Fri 10:28:00 PM 52.5258 -35.7770 80° East  Level FlightAware Approximate
Fri 10:29:00 PM 52.5491 -35.5533 80° East  Level FlightAware Approximate
Fri 10:30:00 PM 52.5720 -35.3294 80° East  Level FlightAware Approximate
Fri 10:31:00 PM 52.5945 -35.1052 81° East  Level FlightAware Approximate
Fri 10:32:00 PM 52.6170 -34.8809 81° East  Level FlightAware Approximate
Fri 10:33:00 PM 52.6392 -34.6564 81° East  Level FlightAware Approximate
Fri 10:34:00 PM 52.6609 -34.4317 81° East  Level FlightAware Approximate
Fri 10:35:00 PM 52.6823 -34.2068 81° East  Level FlightAware Approximate
Fri 10:36:00 PM 52.7032 -33.9816 81° East  Level FlightAware Approximate
Fri 10:37:00 PM 52.7237 -33.7563 81° East  Level FlightAware Approximate
Fri 10:38:00 PM 52.7437 -33.5307 82° East  Level FlightAware Approximate
Fri 10:39:00 PM 52.7634 -33.3049 82° East  Level FlightAware Approximate
Fri 10:40:00 PM 52.7826 -33.0790 82° East  Level FlightAware Approximate
Fri 10:41:00 PM 52.8013 -32.8528 82° East  Level FlightAware Approximate
Fri 10:42:00 PM 52.8197 -32.6264 82° East  Level FlightAware Approximate
Fri 10:43:00 PM 52.8376 -32.3999 82° East  Level FlightAware Approximate
Fri 10:44:00 PM 52.8550 -32.1731 83° East  Level FlightAware Approximate
Fri 10:45:00 PM 52.8721 -31.9462 83° East  Level FlightAware Approximate
Fri 10:46:00 PM 52.8887 -31.7191 83° East  Level FlightAware Approximate
Fri 10:47:00 PM 52.9049 -31.4918 83° East  Level FlightAware Approximate
Fri 10:48:00 PM 52.9206 -31.2644 83° East  Level FlightAware Approximate
Fri 10:49:00 PM 52.9359 -31.0368 84° East  Level FlightAware Approximate
Fri 10:50:00 PM 52.9508 -30.8090 84° East  Level FlightAware Approximate
Fri 10:51:00 PM 52.9652 -30.5811 84° East  Level FlightAware Approximate
Fri 10:52:00 PM 52.9792 -30.3531 84° East  Level FlightAware Approximate
Fri 10:53:00 PM 52.9928 -30.1248 84° East  Level FlightAware Approximate
Fri 10:54:00 PM 53.0039 -29.8963 86° East  Level FlightAware Approximate
Fri 10:55:00 PM 53.0122 -29.6673 86° East  Level FlightAware Approximate
Fri 10:56:00 PM 53.0200 -29.4382 87° East  Level FlightAware Approximate
Fri 10:57:00 PM 53.0274 -29.2090 87° East  Level FlightAware Approximate
Fri 10:58:00 PM 53.0344 -28.9797 87° East  Level FlightAware Approximate
Fri 10:59:00 PM 53.0409 -28.7504 87° East  Level FlightAware Approximate
Fri 11:00:00 PM 53.0470 -28.5210 87° East  Level FlightAware Approximate
Fri 11:01:00 PM 53.0526 -28.2915 88° East  Level FlightAware Approximate
Fri 11:02:00 PM 53.0578 -28.0620 88° East  Level FlightAware Approximate
Fri 11:03:00 PM 53.0626 -27.8324 88° East  Level FlightAware Approximate
Fri 11:04:00 PM 53.0669 -27.6028 88° East  Level FlightAware Approximate
Fri 11:05:00 PM 53.0708 -27.3731 88° East  Level FlightAware Approximate
Fri 11:06:00 PM 53.0742 -27.1434 88° East  Level FlightAware Approximate
Fri 11:07:00 PM 53.0772 -26.9137 89° East  Level FlightAware Approximate
Fri 11:08:00 PM 53.0797 -26.6839 89° East  Level FlightAware Approximate
Fri 11:09:00 PM 53.0818 -26.4541 89° East  Level FlightAware Approximate
Fri 11:10:00 PM 53.0837 -26.2243 89° East  Level FlightAware Approximate
Fri 11:11:00 PM 53.0863 -25.9945 89° East  Level FlightAware Approximate
Fri 11:12:00 PM 53.0886 -25.7647 89° East  Level FlightAware Approximate
Fri 11:13:00 PM 53.0904 -25.5348 89° East  Level FlightAware Approximate
Fri 11:14:00 PM 53.0918 -25.3050 89° East  Level FlightAware Approximate
Fri 11:15:00 PM 53.0927 -25.0751 90° East  Level FlightAware Approximate
Fri 11:16:00 PM 53.0932 -24.8452 90° East  Level FlightAware Approximate
Fri 11:17:00 PM 53.0932 -24.6153 90° East  Level FlightAware Approximate
Fri 11:18:00 PM 53.0928 -24.3854 90° East  Level FlightAware Approximate
Fri 11:19:00 PM 53.0919 -24.1555 90° East  Level FlightAware Approximate
Fri 11:20:00 PM 53.0906 -23.9257 90° East  Level FlightAware Approximate
Fri 11:21:00 PM 53.0889 -23.6958 91° East  Level FlightAware Approximate
Fri 11:22:00 PM 53.0867 -23.4660 91° East  Level FlightAware Approximate
Fri 11:23:00 PM 53.0841 -23.2362 91° East  Level FlightAware Approximate
Fri 11:24:00 PM 53.0810 -23.0064 91° East  Level FlightAware Approximate
Fri 11:25:00 PM 53.0775 -22.7767 91° East  Level FlightAware Approximate
Fri 11:26:00 PM 53.0736 -22.5470 92° East  Level FlightAware Approximate
Fri 11:27:00 PM 53.0692 -22.3173 92° East  Level FlightAware Approximate
Fri 11:28:00 PM 53.0643 -22.0877 92° East  Level FlightAware Approximate
Fri 11:29:00 PM 53.0591 -21.8582 92° East  Level FlightAware Approximate
Fri 11:30:00 PM 53.0533 -21.6287 92° East  Level FlightAware Approximate
Fri 11:31:00 PM 53.0472 -21.3992 92° East  Level FlightAware Approximate
Fri 11:32:00 PM 53.0406 -21.1699 93° East  Level FlightAware Approximate
Fri 11:33:00 PM 53.0335 -20.9406 93° East  Level FlightAware Approximate
Fri 11:34:00 PM 53.0261 -20.7114 93° East  Level FlightAware Approximate
Fri 11:35:00 PM 53.0181 -20.4823 93° East  Level FlightAware Approximate
Fri 11:36:00 PM 53.0098 -20.2532 93° East  Level FlightAware Approximate
Fri 11:37:00 PM 53.0010 -20.0243 94° East  Level FlightAware Approximate
Fri 11:38:00 PM 52.9571 -19.8078 110° East  Level FlightAware Approximate
Fri 11:39:00 PM 52.9087 -19.5933 110° East  Level FlightAware Approximate
Fri 11:40:00 PM 52.8599 -19.3793 111° Southeast  Level FlightAware Approximate
Fri 11:41:00 PM 52.8108 -19.1657 111° Southeast  Level FlightAware Approximate
Fri 11:42:00 PM 52.7612 -18.9527 111° Southeast  Level FlightAware Approximate
Fri 11:43:00 PM 52.7113 -18.7401 111° Southeast  Level FlightAware Approximate
Fri 11:44:00 PM 52.6610 -18.5280 111° Southeast  Level FlightAware Approximate
Fri 11:45:00 PM 52.6104 -18.3164 111° Southeast  Level FlightAware Approximate
Fri 11:46:00 PM 52.5593 -18.1053 112° Southeast  Level FlightAware Approximate
Fri 11:47:00 PM 52.5079 -17.8947 112° Southeast  Level FlightAware Approximate
Fri 11:48:00 PM 52.4561 -17.6845 112° Southeast  Level FlightAware Approximate
Fri 11:49:00 PM 52.4040 -17.4749 112° Southeast  Level FlightAware Approximate
Fri 11:50:00 PM 52.3514 -17.2658 112° Southeast  Level FlightAware Approximate
Fri 11:51:00 PM 52.2985 -17.0572 112° Southeast  Level FlightAware Approximate
Fri 11:52:00 PM 52.2453 -16.8490 113° Southeast  Level FlightAware Approximate
Fri 11:53:00 PM 52.1916 -16.6414 113° Southeast  Level FlightAware Approximate
Fri 11:54:00 PM 52.1376 -16.4343 113° Southeast  Level FlightAware Approximate
Fri 11:55:00 PM 52.0833 -16.2276 113° Southeast  Level FlightAware Approximate
Fri 11:56:00 PM 52.0285 -16.0215 113° Southeast  Level FlightAware Approximate
Fri 11:57:00 PM 51.9735 -15.8159 113° Southeast  Level FlightAware Approximate
Fri 11:58:00 PM 51.9180 -15.6108 114° Southeast  Level FlightAware Approximate
Fri 11:59:00 PM 51.8622 -15.4062 114° Southeast  Level FlightAware Approximate
Sat 12:00:00 AM 51.8061 -15.2021 114° Southeast  Level FlightAware Approximate
Sat 12:01:00 AM 51.7496 -14.9985 115° Southeast  Level FlightAware Approximate
Sat 12:02:00 AM 51.6913 -14.7965 115° Southeast  Level FlightAware Approximate
Sat 12:03:00 AM 51.6327 -14.5950 115° Southeast  Level FlightAware Approximate
Sat 12:04:00 AM 51.5737 -14.3940 115° Southeast  Level FlightAware Approximate
Sat 12:05:00 AM 51.5144 -14.1936 115° Southeast  Level FlightAware Approximate
Sat 12:06:00 AM 51.4551 -13.9934 115° Southeast  Level FlightAware Approximate
Sat 12:07:00 AM 51.3966 -13.7929 115° Southeast  Level FlightAware Approximate
Sat 12:08:00 AM 51.3378 -13.5928 115° Southeast  Level FlightAware Approximate
Sat 12:09:00 AM 51.2786 -13.3933 115° Southeast  Level FlightAware Approximate
Sat 12:10:00 AM 51.2191 -13.1943 115° Southeast  Level FlightAware Approximate
Sat 12:11:00 AM 51.1593 -12.9958 116° Southeast  Level FlightAware Approximate
Sat 12:12:00 AM 51.0991 -12.7978 116° Southeast  Level FlightAware Approximate
Sat 12:13:00 AM 51.0386 -12.6004 116° Southeast  Level FlightAware Approximate
Sat 12:14:00 AM 50.9785 -12.4028 116° Southeast  Level FlightAware Approximate
Sat 12:15:00 AM 50.9182 -12.2057 116° Southeast  Level FlightAware Approximate
Sat 12:16:00 AM 50.8576 -12.0091 116° Southeast  Level FlightAware Approximate
Sat 12:17:00 AM 50.7966 -11.8130 116° Southeast  Level FlightAware Approximate
Sat 12:18:00 AM 50.7354 -11.6174 116° Southeast  Level FlightAware Approximate
Sat 12:19:00 AM 50.6738 -11.4223 116° Southeast  Level FlightAware Approximate
Sat 12:20:00 AM 50.6116 -11.2279 117° Southeast  Level FlightAware Approximate
Sat 12:21:00 AM 50.5491 -11.0341 117° Southeast  Level FlightAware Approximate
Sat 12:22:00 AM 50.4863 -10.8407 117° Southeast  Level FlightAware Approximate
Sat 12:23:00 AM 50.4232 -10.6479 117° Southeast  Level FlightAware Approximate
Sat 12:24:00 AM 50.3597 -10.4556 117° Southeast  Level FlightAware Approximate
Sat 12:25:00 AM 50.2960 -10.2638 117° Southeast  Level FlightAware Approximate
Sat 12:25:52 AM 50.1110 -9.4130 118° Southeast 470 541 33,000  Level FlightAware ADS-B
Sat 12:26:00 AM 50.2319 -10.0725 118° Southeast  Level FlightAware Approximate
Sat 12:26:32 AM 50.0660 -9.3000 122° Southeast 470 541 33,000  Level FlightAware ADS-B
Sat 12:27:17 AM 50.0150 -9.1690 121° Southeast 469 540 33,000  Level FlightAware ADS-B
Sat 12:27:57 AM 49.9690 -9.0540 122° Southeast 469 540 33,000 -1,139 Level FlightAware ADS-B
Sat 12:28:36 AM 49.9042 -8.9943 122° Southeast 450 518 31,500  Descending FlightAware UK
Sat 12:28:37 AM 49.9220 -8.9360 122° Southeast 468 539 33,000  Climbing FlightAware ADS-B
Sat 12:28:54 AM 49.8838 -8.9428 122° Southeast 450 518 31,500 -2,571 Descending FlightAware UK
Sat 12:29:12 AM 49.8632 -8.8913 122° Southeast 448 516 31,500  Level FlightAware UK
Sat 12:29:30 AM 49.8425 -8.8398 122° Southeast 448 516 31,500 4,500 Level FlightAware UK
Sat 12:29:32 AM 49.8650 -8.7920 122° Southeast 469 540 33,000  Climbing FlightAware ADS-B
Sat 12:29:48 AM 49.8220 -8.7882 122° Southeast 450 518 31,500 -2,647 Descending FlightAware UK
Sat 12:30:06 AM 49.8013 -8.7368 122° Southeast 450 518 31,500 3,750 Level FlightAware UK
Sat 12:30:12 AM 49.8270 -8.6940 122° Southeast 469 540 33,000  Climbing FlightAware ADS-B
Sat 12:30:30 AM 49.7736 -8.6684 122° Southeast 448 516 31,500 -2,667 Descending FlightAware UK
Sat 12:30:48 AM 49.7528 -8.6172 122° Southeast 448 516 31,400 2,813 Descending FlightAware UK
Sat 12:31:02 AM 49.7570 -8.5260 122° Southeast 468 539 33,000  Climbing FlightAware ADS-B
Sat 12:31:18 AM 49.7180 -8.5320 122° Southeast 446 513 31,400 -2,824 Descending FlightAware UK
Sat 12:31:36 AM 49.6972 -8.4809 122° Southeast 448 516 31,400 4,000 Level FlightAware UK
Sat 12:31:42 AM 49.7080 -8.4060 122° Southeast 469 540 33,000  Climbing FlightAware ADS-B
Sat 12:32:00 AM 49.6694 -8.4127 122° Southeast 448 516 31,400 -2,667 Descending FlightAware UK
Sat 12:32:18 AM 49.6486 -8.3615 122° Southeast 448 516 31,400 4,364 Level FlightAware UK
Sat 12:32:22 AM 49.6610 -8.2920 122° Southeast 469 540 33,000 250 Climbing FlightAware ADS-B
Sat 12:32:42 AM 49.6208 -8.2934 122° Southeast 446 513 31,500 -2,368 Descending FlightAware UK
Sat 12:33:00 AM 49.5998 -8.2424 122° Southeast 446 513 31,500 3,600 Level FlightAware UK
Sat 12:33:07 AM 49.6080 -8.1630 122° Southeast 470 541 33,000  Climbing FlightAware ADS-B
Sat 12:33:24 AM 49.5717 -8.1745 122° Southeast 446 513 31,500 -2,571 Descending FlightAware UK
Sat 12:33:42 AM 49.5506 -8.1235 122° Southeast 446 513 31,500 3,913 Level FlightAware UK
Sat 12:33:47 AM 49.5600 -8.0470 122° Southeast 475 547 33,000  Climbing FlightAware ADS-B
Sat 12:34:06 AM 49.5225 -8.0555 122° Southeast 446 513 31,500 -2,432 Descending FlightAware UK
Sat 12:34:24 AM 49.5029 -8.0022 120° Southeast 446 513 31,500 3,462 Level FlightAware UK
Sat 12:34:32 AM 49.5140 -7.9160 120° Southeast 473 544 33,000  Climbing FlightAware ADS-B
Sat 12:34:48 AM 49.4887 -7.9232 120° Southeast 448 516 31,500 -2,647 Descending FlightAware UK
Sat 12:35:06 AM 49.4711 -7.8688 116° Southeast 448 516 31,500 3,750 Level FlightAware UK
Sat 12:35:12 AM 49.4790 -7.7930 116° Southeast 473 544 33,000  Climbing FlightAware ADS-B
Sat 12:35:30 AM 49.4436 -7.7998 116° Southeast 448 516 31,500 -2,143 Descending FlightAware UK
Sat 12:35:54 AM 49.4188 -7.7282 118° Southeast 450 518 31,500 3,333 Level FlightAware UK
Sat 12:35:57 AM 49.4310 -7.6570 118° Southeast 474 545 33,000  Climbing FlightAware ADS-B
Sat 12:36:12 AM 49.4007 -7.6743 118° Southeast 452 520 31,500 -2,727 Descending FlightAware UK
Sat 12:36:30 AM 49.3827 -7.6194 117° Southeast 452 520 31,500 3,600 Level FlightAware UK
Sat 12:36:37 AM 49.3900 -7.5320 117° Southeast 477 549 33,000  Climbing FlightAware ADS-B
Sat 12:36:54 AM 49.3599 -7.5463 117° Southeast 452 520 31,500 -2,571 Descending FlightAware UK
Sat 12:37:12 AM 49.3427 -7.4918 116° Southeast 452 520 31,500 3,913 Level FlightAware UK
Sat 12:37:17 AM 49.3540 -7.4210 116° Southeast 477 549 33,000  Climbing FlightAware ADS-B
Sat 12:37:36 AM 49.3200 -7.4190 116° Southeast 452 520 31,500 -2,093 Descending FlightAware UK
Sat 12:38:00 AM 49.2970 -7.3465 116° Southeast 452 520 31,500 3,462 Level FlightAware UK
Sat 12:38:02 AM 49.3090 -7.2790 116° Southeast 476 548 33,000  Climbing FlightAware ADS-B
Sat 12:38:18 AM 49.2797 -7.2923 116° Southeast 452 520 31,500 -2,250 Descending FlightAware UK
Sat 12:38:42 AM 49.2565 -7.2202 116° Southeast 450 518 31,500 3,750 Level FlightAware UK
Sat 12:38:42 AM 49.2700 -7.1580 116° Southeast 475 547 33,000  Climbing FlightAware ADS-B
Sat 12:39:00 AM 49.2390 -7.1663 116° Southeast 450 518 31,500 -2,500 Descending FlightAware UK
Sat 12:39:18 AM 49.2212 -7.1126 117° Southeast 452 520 31,500 3,333 Level FlightAware UK
Sat 12:39:27 AM 49.2250 -7.0240 117° Southeast 472 543 33,000  Climbing FlightAware ADS-B
Sat 12:39:42 AM 49.1971 -7.0413 117° Southeast 450 518 31,500 -2,727 Descending FlightAware UK
Sat 12:40:00 AM 49.1789 -6.9879 117° Southeast 450 518 31,500 3,600 Level FlightAware UK
Sat 12:40:07 AM 49.1840 -6.9030 117° Southeast 471 542 33,000  Climbing FlightAware ADS-B
Sat 12:40:30 AM 49.1485 -6.8986 117° Southeast 450 518 31,500  Descending FlightAware UK
Sat 12:40:52 AM 49.1390 -6.7710 117° Southeast 471 542 33,000  Climbing FlightAware ADS-B
Sat 12:41:12 AM 49.1060 -6.7744 117° Southeast 450 518 31,500  Descending FlightAware UK
Sat 12:41:32 AM 49.0980 -6.6500 117° Southeast 472 543 33,000  Climbing FlightAware ADS-B
Sat 12:41:48 AM 49.0696 -6.6686 117° Southeast 448 516 31,500 -2,647 Descending FlightAware UK
Sat 12:42:06 AM 49.0514 -6.6155 118° Southeast 448 516 31,500 3,750 Level FlightAware UK
Sat 12:42:12 AM 49.0580 -6.5340 118° Southeast 472 543 33,000  Climbing FlightAware ADS-B
Sat 12:42:30 AM 49.0269 -6.5440 118° Southeast 448 516 31,500 -2,500 Descending FlightAware UK
Sat 12:42:48 AM 49.0088 -6.4907 117° Southeast 448 516 31,500 4,091 Level FlightAware UK
Sat 12:42:52 AM 49.0170 -6.4150 117° Southeast 473 544 33,000  Climbing FlightAware ADS-B
Sat 12:43:12 AM 48.9844 -6.4197 117° Southeast 448 516 31,500 -2,368 Descending FlightAware UK
Sat 12:43:30 AM 48.9658 -6.3665 118° Southeast 450 518 31,500 3,600 Level FlightAware UK
Sat 12:43:37 AM 48.9720 -6.2850 118° Southeast 477 549 33,000  Climbing FlightAware ADS-B
Sat 12:43:54 AM 48.9411 -6.2956 118° Southeast 450 518 31,500  Descending FlightAware UK
Sat 12:44:17 AM 48.9310 -6.1700 118° Southeast 477 549 33,000  Climbing FlightAware ADS-B
Sat 12:44:36 AM 48.8979 -6.1717 118° Southeast 452 520 31,500 -2,432 Descending FlightAware UK
Sat 12:44:54 AM 48.8793 -6.1184 118° Southeast 450 518 31,500 3,462 Level FlightAware UK
Sat 12:45:02 AM 48.8840 -6.0340 118° Southeast 478 550 33,000  Climbing FlightAware ADS-B
Sat 12:45:18 AM 48.8547 -6.0476 118° Southeast 450 518 31,500 -2,250 Descending FlightAware UK
Sat 12:45:42 AM 48.8299 -5.9768 118° Southeast 450 518 31,500 3,750 Level FlightAware UK
Sat 12:45:42 AM 48.8420 -5.9150 118° Southeast 478 550 33,000  Climbing FlightAware ADS-B
Sat 12:46:07 AM 48.8047 -5.9056 118° Southeast 450 518 31,500  Descending FlightAware UK
Sat 12:46:22 AM 48.8000 -5.7980 118° Southeast 477 549 33,000  Climbing FlightAware ADS-B
Sat 12:46:25 AM 48.7860 -5.8527 118° Southeast 450 518 31,500 -4,286 Descending FlightAware UK
Sat 12:46:43 AM 48.7673 -5.7998 118° Southeast 450 518 31,500  Level FlightAware UK
Sat 12:47:01 AM 48.7486 -5.7471 118° Southeast 448 516 31,500 3,750 Level FlightAware UK
Sat 12:47:07 AM 48.7530 -5.6640 118° Southeast 478 550 33,000  Climbing FlightAware ADS-B
Sat 12:47:37 AM 48.7113 -5.6413 118° Southeast 450 518 31,500  Descending FlightAware UK
Sat 12:47:47 AM 48.7130 -5.5530 118° Southeast 477 549 33,000  Climbing FlightAware ADS-B
Sat 12:48:13 AM 48.6739 -5.5358 118° Southeast 450 518 31,500 -2,093 Descending FlightAware UK
Sat 12:48:30 AM 48.6552 -5.4837 118° Southeast 452 520 31,500 4,737 Level FlightAware UK
Sat 12:48:32 AM 48.6660 -5.4210 118° Southeast 478 550 33,000  Climbing FlightAware ADS-B
Sat 12:48:49 AM 48.6360 -5.4306 118° Southeast 452 520 31,500 -2,571 Descending FlightAware UK
Sat 12:49:07 AM 48.6171 -5.3780 119° Southeast 452 520 31,500 3,913 Level FlightAware UK
Sat 12:49:12 AM 48.6220 -5.2990 119° Southeast 477 549 33,000  Climbing FlightAware ADS-B
Sat 12:49:37 AM 48.5855 -5.2906 119° Southeast 452 520 31,500  Descending FlightAware UK
Sat 12:49:47 AM 48.5850 -5.1980 119° Southeast 476 548 33,000  Climbing FlightAware ADS-B
Sat 12:49:54 AM 48.5668 -5.2388 119° Southeast 452 520 31,500 -4,500 Descending FlightAware UK
Sat 12:50:07 AM 48.5540 -5.2033 119° Southeast 452 520 31,500  Level FlightAware UK
Sat 12:50:25 AM 48.5351 -5.1511 119° Southeast 450 518 31,500 3,000 Level FlightAware UK
Sat 12:50:37 AM 48.5320 -5.0500 119° Southeast 475 547 33,000  Climbing FlightAware ADS-B
Sat 12:50:55 AM 48.5034 -5.0635 119° Southeast 454 522 31,500 -2,500 Descending FlightAware UK
Sat 12:51:13 AM 48.4843 -5.0114 119° Southeast 454 522 31,500 4,091 Level FlightAware UK
Sat 12:51:17 AM 48.4890 -4.9340 119° Southeast 475 547 33,000  Climbing FlightAware ADS-B
Sat 12:51:37 AM 48.4592 -4.9428 119° Southeast 452 520 31,500 -2,368 Descending FlightAware UK
Sat 12:51:55 AM 48.4401 -4.8909 119° Southeast 452 520 31,500 3,600 Level FlightAware UK
Sat 12:52:02 AM 48.4430 -4.8080 119° Southeast 474 545 33,000  Climbing FlightAware ADS-B
Sat 12:52:25 AM 48.4083 -4.8040 119° Southeast 452 520 31,500  Descending FlightAware UK
Sat 12:52:42 AM 48.3990 -4.6900 119° Southeast 473 544 33,000  Climbing FlightAware ADS-B
Sat 12:52:43 AM 48.3892 -4.7524 119° Southeast 452 520 31,500 -4,737 Descending FlightAware UK
Sat 12:53:01 AM 48.3702 -4.7007 119° Southeast 450 518 31,500  Level FlightAware UK
Sat 12:53:19 AM 48.3512 -4.6491 119° Southeast 450 518 31,500 3,462 Level FlightAware UK
Sat 12:53:27 AM 48.3510 -4.5600 119° Southeast 473 544 33,000  Climbing FlightAware ADS-B
Sat 12:53:43 AM 48.3258 -4.5804 119° Southeast 448 516 31,500 -2,647 Descending FlightAware UK
Sat 12:54:01 AM 48.3066 -4.5291 119° Southeast 450 518 31,500 3,750 Level FlightAware UK
Sat 12:54:07 AM 48.3090 -4.4460 119° Southeast 472 543 33,000  Climbing FlightAware ADS-B
Sat 12:54:25 AM 48.2808 -4.4600 119° Southeast 448 516 31,500 -2,143 Descending FlightAware UK
Sat 12:54:49 AM 48.2553 -4.3916 119° Southeast 450 518 31,500 3,333 Level FlightAware UK
Sat 12:54:52 AM 48.2600 -4.3140 119° Southeast 472 543 33,000  Climbing FlightAware ADS-B
Sat 12:55:07 AM 48.2361 -4.3404 119° Southeast 450 518 31,500  Descending FlightAware UK
Sat 12:55:32 AM 48.2190 -4.2070 119° Southeast 472 543 33,000 1,385 Climbing FlightAware ADS-B
Sat 12:56:12 AM 48.1740 -4.0890 120° Southeast 472 543 33,000  Level FlightAware ADS-B
Sat 12:56:57 AM 48.1240 -3.9620 120° Southeast 476 548 33,000  Level FlightAware ADS-B
Sat 12:57:37 AM 48.0760 -3.8620 126° Southeast 475 547 33,000  Level FlightAware ADS-B
Sat 12:58:12 AM 48.0330 -3.7710 125° Southeast 474 545 33,000  Level FlightAware ADS-B
Sat 12:59:02 AM 47.9650 -3.6300 126° Southeast 473 544 33,000  Level FlightAware ADS-B
Sat 12:59:42 AM 47.9160 -3.5260 125° Southeast 473 544 33,000  Level FlightAware ADS-B
Sat 01:00:27 AM 47.8580 -3.4040 125° Southeast 473 544 33,000  Level FlightAware ADS-B
Sat 01:01:07 AM 47.8070 -3.3000 126° Southeast 473 544 33,000  Level FlightAware ADS-B
Sat 01:01:52 AM 47.7500 -3.1800 125° Southeast 473 544 33,000  Level FlightAware ADS-B
Sat 01:02:32 AM 47.6990 -3.0770 126° Southeast 474 545 33,000  Level FlightAware ADS-B
Sat 01:03:12 AM 47.6470 -2.9700 126° Southeast 471 542 33,000  Level FlightAware ADS-B
Sat 01:04:12 AM 47.5720 -2.8160 126° Southeast 477 549 33,000  Level FlightAware ADS-B
Sat 01:04:52 AM 47.5160 -2.7040 126° Southeast 477 549 33,000  Level FlightAware ADS-B
Sat 01:05:32 AM 47.4640 -2.5970 126° Southeast 477 549 33,000  Level FlightAware ADS-B
Sat 01:06:17 AM 47.4050 -2.4790 126° Southeast 476 548 33,000  Level FlightAware ADS-B
Sat 01:06:57 AM 47.3510 -2.3720 127° Southeast 477 549 33,000  Level FlightAware ADS-B
Sat 01:07:42 AM 47.2960 -2.2600 126° Southeast 476 548 33,000  Level FlightAware ADS-B
Sat 01:08:22 AM 47.2420 -2.1540 127° Southeast 476 548 33,000  Level FlightAware ADS-B
Sat 01:09:02 AM 47.1900 -2.0510 127° Southeast 476 548 33,000  Level FlightAware ADS-B
Sat 01:09:47 AM 47.1310 -1.9330 126° Southeast 477 549 33,000  Level FlightAware ADS-B
Sat 01:10:27 AM 47.0780 -1.8290 127° Southeast 477 549 33,000  Level FlightAware ADS-B
Sat 01:11:07 AM 47.0250 -1.7250 127° Southeast 478 550 33,000  Level FlightAware ADS-B
Sat 01:11:52 AM 46.9650 -1.6090 127° Southeast 477 549 33,000  Level FlightAware ADS-B
Sat 01:12:32 AM 46.9130 -1.5070 127° Southeast 477 549 33,000  Level FlightAware ADS-B
Sat 01:13:17 AM 46.8510 -1.3870 127° Southeast 477 549 33,000  Level FlightAware ADS-B
Sat 01:13:57 AM 46.7990 -1.2870 127° Southeast 478 550 33,000  Level FlightAware ADS-B
Sat 01:14:42 AM 46.7400 -1.1720 127° Southeast 479 551 33,000  Level FlightAware ADS-B
Sat 01:15:22 AM 46.6870 -1.0700 127° Southeast 477 549 33,000  Level FlightAware ADS-B
Sat 01:16:02 AM 46.6330 -0.9680 128° Southeast 476 548 33,000  Level FlightAware ADS-B
Sat 01:16:42 AM 46.5800 -0.8670 127° Southeast 476 548 33,000  Level FlightAware ADS-B
Sat 01:17:27 AM 46.5270 -0.7670 128° Southeast 476 548 33,000  Level FlightAware ADS-B
Sat 01:18:32 AM 46.4510 -0.5830 121° Southeast 458 527 33,000  Level FlightAware ADS-B
Sat 01:19:17 AM 46.4230 -0.4640 109° East 455 524 33,000  Level FlightAware ADS-B
Sat 01:19:57 AM 46.3960 -0.3470 108° East 455 524 33,000  Level FlightAware ADS-B
Sat 01:20:52 AM 46.3570 -0.1820 109° East 455 524 33,000  Level FlightAware ADS-B
Sat 01:21:32 AM 46.3300 -0.0650 108° East 459 528 33,000  Level FlightAware ADS-B
Sat 01:22:37 AM 46.2860 0.1210 109° East 458 527 33,000  Level FlightAware ADS-B
Sat 01:23:12 AM 46.2630 0.2210 108° East 459 528 33,000  Level FlightAware ADS-B
Sat 01:23:57 AM 46.2350 0.3430 108° East 459 528 33,000  Level FlightAware ADS-B
Sat 01:24:37 AM 46.2040 0.4680 110° East 458 527 33,000  Level FlightAware ADS-B
Sat 01:25:22 AM 46.1720 0.6000 109° East 458 527 33,000  Level FlightAware ADS-B
Sat 01:25:57 AM 46.1510 0.6900 109° East 458 527 33,000  Level FlightAware ADS-B
Sat 01:27:02 AM 46.1070 0.8690 109° East 458 527 33,000  Level FlightAware ADS-B
Sat 01:27:37 AM 46.0800 0.9770 110° East 455 524 33,000  Level FlightAware ADS-B
Sat 01:28:22 AM 46.0480 1.1080 109° East 458 527 33,000  Level FlightAware ADS-B
Sat 01:29:07 AM 46.0200 1.2230 109° East 458 527 33,000  Level FlightAware ADS-B
Sat 01:29:47 AM 45.9970 1.3210 109° East 458 527 33,000  Level FlightAware ADS-B
Sat 01:30:27 AM 45.9740 1.4190 109° East 458 527 33,000  Level FlightAware ADS-B
Sat 01:31:17 AM 45.9440 1.5420 109° East 458 527 33,000  Level FlightAware ADS-B
Sat 01:31:42 AM 45.9690 1.7050 78° East 450 518 33,000  Level FlightAware ADS-B
Sat 01:32:37 AM 45.9750 1.8640 87° East 450 518 33,000  Level FlightAware ADS-B
Sat 01:33:22 AM 45.9800 1.9940 87° East 451 519 33,000  Level FlightAware ADS-B
Sat 01:34:02 AM 45.9820 2.1250 89° East 455 524 33,000  Level FlightAware ADS-B
Sat 01:34:42 AM 45.9730 2.2390 96° East 457 526 33,000  Level FlightAware ADS-B
Sat 01:35:27 AM 45.9620 2.3710 97° East 456 525 33,000  Level FlightAware ADS-B
Sat 01:36:07 AM 45.9510 2.5000 97° East 455 524 33,000  Level FlightAware ADS-B
Sat 01:36:52 AM 45.9390 2.6300 98° East 454 522 33,000  Level FlightAware ADS-B
Sat 01:37:32 AM 45.9300 2.7360 97° East 453 521 33,000  Level FlightAware ADS-B
Sat 01:38:12 AM 45.9170 2.8630 98° East 453 521 33,000  Level FlightAware ADS-B
Sat 01:38:57 AM 45.9040 3.0070 97° East 452 520 33,000  Level FlightAware ADS-B
Sat 01:39:37 AM 45.8930 3.1220 98° East 451 519 33,000  Level FlightAware ADS-B
Sat 01:40:17 AM 45.8820 3.2400 98° East 450 518 33,000  Level FlightAware ADS-B
Sat 01:41:02 AM 45.8690 3.3730 98° East 448 516 33,000  Level FlightAware ADS-B
Sat 01:41:42 AM 45.8570 3.4900 98° East 447 514 33,000  Level FlightAware ADS-B
Sat 01:42:27 AM 45.8460 3.6020 98° East 447 514 33,000  Level FlightAware ADS-B
Sat 01:43:07 AM 45.8320 3.7380 98° East 447 514 33,000  Level FlightAware ADS-B
Sat 01:44:32 AM 45.8060 3.9870 98° East 449 517 33,000  Level FlightAware ADS-B
Sat 01:45:17 AM 45.7920 4.1230 98° East 449 517 33,000  Level FlightAware ADS-B
Sat 01:45:57 AM 45.7800 4.2410 98° East 450 518 33,000  Level FlightAware ADS-B
Sat 01:46:37 AM 45.7680 4.3530 99° East 451 519 33,000  Level FlightAware ADS-B
Sat 01:47:22 AM 45.7530 4.4850 99° East 451 519 33,000  Level FlightAware ADS-B
Sat 01:48:02 AM 45.7380 4.6050 100° East 451 519 33,000  Level FlightAware ADS-B
Sat 01:48:42 AM 45.7200 4.7250 102° East 450 518 33,000  Level FlightAware ADS-B
Sat 01:49:22 AM 45.6960 4.8380 107° East 450 518 33,000  Level FlightAware ADS-B
Sat 01:50:07 AM 45.6570 4.9590 115° Southeast 452 520 33,000  Level FlightAware ADS-B
Sat 01:50:52 AM 45.6180 5.0840 114° Southeast 453 521 33,000  Level FlightAware ADS-B
Sat 01:51:32 AM 45.5830 5.1910 115° Southeast 453 521 33,000  Level FlightAware ADS-B
Sat 01:52:12 AM 45.5460 5.3010 116° Southeast 454 522 33,000  Level FlightAware ADS-B
Sat 01:52:57 AM 45.5070 5.4180 115° Southeast 455 524 33,000 -353 Level FlightAware ADS-B
Sat 01:53:37 AM 45.4720 5.5270 115° Southeast 462 532 32,500 -1,694 Descending FlightAware ADS-B
Sat 01:54:22 AM 45.4290 5.6530 116° Southeast 453 521 30,600 -2,541 Descending FlightAware ADS-B
Sat 01:55:02 AM 45.3940 5.7590 115° Southeast 442 509 28,900 -2,400 Descending FlightAware ADS-B
Sat 01:55:47 AM 45.3560 5.8720 116° Southeast 427 491 27,200 -1,341 Descending FlightAware ADS-B
Sat 01:56:27 AM 45.3240 5.9670 116° Southeast 401 461 27,000 -150 Descending FlightAware ADS-B
Sat 01:57:07 AM 45.2920 6.0600 116° Southeast 420 483 27,000 -231 Level FlightAware ADS-B
Sat 01:59:00 AM 45.3419 6.4229 79° East  Level Estimated
Sat 02:00:00 AM 45.3680 6.6158 79° East  Level Estimated
Sat 02:01:00 AM 45.3937 6.8089 79° East  Level Estimated
Sat 02:02:00 AM 45.4191 7.0022 79° East  Level Estimated
Sat 02:03:00 AM 45.4442 7.1956 79° East  Level Estimated
Sat 02:04:00 AM 45.4690 7.3892 80° East  Level Estimated
Sat 02:05:00 AM 45.4934 7.5830 80° East  Level Estimated
Sat 02:05:07 AM 45.0500 7.3130 80° East 378 435 25,000  Level FlightAware ADS-B
Sat 02:05:47 AM 45.0400 7.4170 98° East 371 427 24,400 -1,425 Descending FlightAware ADS-B
Sat 02:06:27 AM 45.0310 7.5110 98° East 371 427 23,100 -1,906 Descending FlightAware ADS-B
Sat 02:07:12 AM 45.0210 7.6180 97° East 366 421 21,700 -1,694 Descending FlightAware ADS-B
Sat 02:07:52 AM 45.0120 7.7110 98° East 358 412 20,700 -1,650 Descending FlightAware ADS-B
Sat 02:08:32 AM 45.0040 7.8030 97° East 356 410 19,500 -2,259 Descending FlightAware ADS-B
Sat 02:09:17 AM 45.0050 7.9090 89° East 356 410 17,500 -2,612 Descending FlightAware ADS-B
Sat 02:09:57 AM 45.0310 7.9910 66° East 341 392 15,800 -2,682 Descending FlightAware ADS-B
Sat 02:10:42 AM 45.0620 8.0800 64° Northeast 331 381 13,700 -2,894 Descending FlightAware ADS-B
Sat 02:11:22 AM 45.0880 8.1570 64° Northeast 324 373 11,700 -2,541 Descending FlightAware ADS-B
Sat 02:12:07 AM 45.1180 8.2420 63° Northeast 302 348 10,100 -1,200 Descending FlightAware ADS-B
Sat 02:12:47 AM 45.1410 8.3120 65° Northeast 290 334 10,000 -257 Descending FlightAware ADS-B
Sat 02:13:17 AM 45.1570 8.3600 65° Northeast 265 305 9,800 -900 Descending FlightAware ADS-B
Sat 02:13:27 AM 45.1630 8.3770 63° Northeast 266 306 9,400 -2,100 Descending FlightAware ADS-B
Sat 02:13:57 AM 45.1780 8.4220 65° Northeast 266 306 8,400 -1,964 Descending FlightAware ADS-B
Sat 02:14:22 AM 45.1910 8.4600 64° Northeast 262 302 7,600 -2,100 Descending FlightAware ADS-B
Sat 02:14:37 AM 45.2000 8.4870 65° Northeast 259 298 7,000 -2,267 Descending FlightAware ADS-B
Sat 02:15:07 AM 45.2160 8.5330 64° Northeast 256 295 5,900 -2,000 Descending FlightAware ADS-B
Sat 02:15:22 AM 45.2220 8.5530 67° East 255 293 5,500 -1,650 Descending FlightAware ADS-B
Sat 02:15:47 AM 45.2350 8.5900 63° Northeast 247 284 4,800 -1,527 Descending FlightAware ADS-B
Sat 02:16:17 AM 45.2490 8.6330 65° Northeast 239 275 4,100 -873 Descending FlightAware ADS-B
Sat 02:16:42 AM 45.2610 8.6700 65° Northeast 228 262 4,000 -133 Descending FlightAware ADS-B
Sat 02:17:02 AM 45.2700 8.6960 64° Northeast 219 252 4,000  Level FlightAware ADS-B
Sat 02:17:27 AM 45.2810 8.7280 64° Northeast 223 257 4,000  Level FlightAware ADS-B
Sat 02:17:42 AM 45.2920 8.7450 47° Northeast 229 264 4,000  Level FlightAware ADS-B
Sat 02:17:57 AM 45.3050 8.7580 35° Northeast 233 268 4,000  Level FlightAware ADS-B
Sat 02:18:22 AM 45.3270 8.7800 35° Northeast 226 260 4,000  Level FlightAware ADS-B
Sat 02:18:47 AM 45.3470 8.8000 35° Northeast 228 262 4,000  Level FlightAware ADS-B
Sat 02:19:02 AM 45.3620 8.8150 35° Northeast 229 264 4,000  Level FlightAware ADS-B
Sat 02:19:32 AM 45.3880 8.8410 35° Northeast 226 260 4,000  Level FlightAware ADS-B
Sat 02:20:02 AM 45.4120 8.8640 34° Northeast 209 241 4,000  Level FlightAware ADS-B
Sat 02:20:12 AM 45.4230 8.8660 North 205 236 4,000  Level FlightAware ADS-B
Sat 02:20:42 AM 45.4500 8.8580 348° North 200 230 4,000 -500 Level FlightAware ADS-B
Sat 02:21:12 AM 45.4770 8.8510 350° North 208 239 3,500 -1,091 Descending FlightAware ADS-B
Sat 02:21:37 AM 45.5020 8.8450 350° North 207 238 3,000 -1,200 Descending FlightAware ADS-B
Sat 02:21:52 AM 45.5160 8.8410 349° North 206 237 2,700 -1,067 Descending FlightAware ADS-B
Sat 02:22:22 AM 45.5440 8.8330 349° North 197 227 2,200 -982 Descending FlightAware ADS-B
Sat 02:22:47 AM 45.5620 8.8280 349° North 183 211 1,800 -960 Descending FlightAware ADS-B
Sat 02:23:12 AM 45.5830 8.8230 351° North 163 188 1,400 -960 Descending FlightAware ADS-B
Sat 02:23:37 AM 45.6000 8.8180 348° North 136 157 1,000 -480 Descending FlightAware ADS-B
Sat 02:24:02 AM 45.6140 8.8140 349° North 136 157 1,000  Level FlightAware ADS-B
Sat 02:26:00 AM 45.6306 8.7281 285° West  Level Estimated

Login

Don't have an account? Register now (free) for customized features, flight alerts, and more!